createdAt,value
2022-12-22T00:01:49.547Z,9.40
2022-12-22T00:04:36.058Z,7.78
2022-12-22T00:07:22.882Z,8.40
2022-12-22T00:10:08.817Z,11.00
2022-12-22T00:12:55.092Z,11.95
2022-12-22T00:15:41.352Z,14.40
2022-12-22T00:18:34.227Z,10.43
2022-12-22T00:21:20.346Z,8.85
2022-12-22T00:24:06.808Z,10.75
2022-12-22T00:26:54.305Z,9.23
2022-12-22T00:29:41.201Z,10.38
2022-12-22T00:32:32.287Z,10.07
2022-12-22T00:35:18.213Z,9.10
2022-12-22T00:38:04.781Z,8.40
2022-12-22T00:40:50.988Z,7.43
2022-12-22T00:43:37.413Z,8.43
2022-12-22T00:46:23.919Z,7.80
2022-12-22T00:49:10.202Z,7.75
2022-12-22T00:51:56.774Z,7.43
2022-12-22T00:54:43.219Z,6.25
2022-12-22T00:57:34.763Z,8.32
2022-12-22T01:00:21.012Z,7.82
2022-12-22T01:03:07.577Z,8.77
2022-12-22T01:05:54.131Z,8.40
2022-12-22T01:08:40.585Z,7.93
2022-12-22T01:11:27.766Z,9.68
2022-12-22T01:14:13.977Z,7.20
2022-12-22T01:17:00.170Z,6.57
2022-12-22T01:19:46.478Z,6.97
2022-12-22T01:22:35.272Z,6.95
2022-12-22T01:25:21.836Z,8.00
2022-12-22T01:28:08.287Z,9.20
2022-12-22T01:30:54.897Z,9.57
2022-12-22T01:33:41.177Z,9.40
2022-12-22T01:36:27.638Z,9.70
2022-12-22T01:39:13.541Z,8.73
2022-12-22T01:41:59.912Z,9.20
2022-12-22T01:44:46.171Z,8.95
2022-12-22T01:47:47.319Z,8.45
2022-12-22T01:50:47.937Z,8.70
2022-12-22T01:53:38.977Z,7.72
2022-12-22T01:56:25.712Z,8.00
2022-12-22T01:59:14.293Z,10.73
2022-12-22T02:02:01.161Z,9.05
2022-12-22T02:04:49.881Z,10.48
2022-12-22T02:07:41.674Z,9.65
2022-12-22T02:10:30.355Z,8.95
2022-12-22T02:13:28.302Z,8.23
2022-12-22T02:16:21.324Z,8.38
2022-12-22T02:19:19.376Z,8.02
2022-12-22T02:22:16.793Z,7.47
2022-12-22T02:25:17.905Z,7.63
2022-12-22T02:28:06.242Z,7.93
2022-12-22T02:30:52.941Z,8.43
2022-12-22T02:33:40.493Z,8.13
2022-12-22T02:36:29.402Z,7.78
2022-12-22T02:39:36.624Z,7.82
2022-12-22T02:42:28.543Z,7.85
2022-12-22T02:45:38.638Z,6.50
2022-12-22T02:48:56.871Z,7.55
2022-12-22T02:51:45.184Z,6.55
2022-12-22T02:54:32.321Z,7.10
2022-12-22T02:57:18.642Z,6.32
2022-12-22T03:00:04.932Z,6.25
2022-12-22T03:02:51.477Z,5.90
2022-12-22T03:05:37.840Z,5.47
2022-12-22T03:08:23.975Z,5.60
2022-12-22T03:11:10.171Z,5.60
2022-12-22T03:13:56.477Z,5.20
2022-12-22T03:16:42.943Z,6.30
2022-12-22T03:19:29.147Z,6.68
2022-12-22T03:22:15.326Z,6.75
2022-12-22T03:25:01.466Z,6.32
2022-12-22T03:27:28.850Z,6.95
2022-12-22T03:29:56.625Z,6.53
2022-12-22T03:32:24.359Z,6.20
2022-12-22T03:34:51.782Z,5.88
2022-12-22T03:37:19.118Z,5.53
2022-12-22T03:39:46.648Z,4.20
2022-12-22T03:42:32.953Z,3.78
2022-12-22T03:45:19.124Z,2.05
2022-12-22T03:47:46.511Z,2.40
2022-12-22T03:50:14.021Z,2.00
2022-12-22T03:52:41.721Z,1.55
2022-12-22T03:55:09.570Z,1.90
2022-12-22T03:57:37.091Z,1.60
2022-12-22T04:00:05.114Z,1.70
2022-12-22T04:02:32.583Z,1.88
2022-12-22T04:05:00.128Z,1.52
2022-12-22T04:07:27.738Z,1.73
2022-12-22T04:10:13.792Z,1.60
2022-12-22T04:12:56.865Z,0.52
2022-12-22T04:15:29.262Z,1.23
2022-12-22T04:17:57.048Z,1.70
2022-12-22T04:20:27.188Z,1.17
2022-12-22T04:22:55.316Z,1.40
2022-12-22T04:25:23.494Z,1.10
2022-12-22T04:27:51.192Z,1.08
2022-12-22T04:30:19.612Z,0.93
2022-12-22T04:32:47.065Z,1.75
2022-12-22T04:35:14.640Z,1.10
2022-12-22T04:37:42.171Z,0.93
2022-12-22T04:40:09.824Z,0.65
2022-12-22T04:42:37.626Z,1.60
2022-12-22T04:45:05.261Z,1.80
2022-12-22T04:47:32.964Z,2.03
2022-12-22T04:50:00.421Z,1.50
2022-12-22T04:52:27.921Z,1.70
2022-12-22T04:54:55.404Z,1.67
2022-12-22T04:57:22.948Z,1.55
2022-12-22T04:59:50.443Z,2.10
2022-12-22T05:02:18.064Z,1.52
2022-12-22T05:04:45.832Z,1.08
2022-12-22T05:07:13.280Z,1.17
2022-12-22T05:09:40.951Z,1.95
2022-12-22T05:12:27.140Z,2.00
2022-12-22T05:14:54.913Z,2.35
2022-12-22T05:17:22.394Z,1.90
2022-12-22T05:19:50.420Z,2.03
2022-12-22T05:22:17.780Z,1.90
2022-12-22T05:24:45.270Z,2.55
2022-12-22T05:27:13.109Z,2.00
2022-12-22T05:29:40.460Z,2.17
2022-12-22T05:32:07.955Z,2.05
2022-12-22T05:34:35.543Z,2.17
2022-12-22T05:37:03.176Z,2.00
2022-12-22T05:39:30.700Z,1.98
2022-12-22T05:41:58.294Z,1.90
2022-12-22T05:44:25.748Z,1.25
2022-12-22T05:46:53.784Z,1.90
2022-12-22T05:49:21.856Z,2.10
2022-12-22T05:51:50.126Z,2.47
2022-12-22T05:54:17.446Z,1.95
2022-12-22T05:56:44.939Z,2.03
2022-12-22T05:59:13.122Z,1.80
2022-12-22T06:01:40.963Z,2.63
2022-12-22T06:04:08.623Z,2.35
2022-12-22T06:06:36.463Z,1.67
2022-12-22T06:09:03.853Z,2.55
2022-12-22T06:11:31.551Z,2.58
2022-12-22T06:13:58.859Z,3.45
2022-12-22T06:16:26.518Z,2.30
2022-12-22T06:18:54.019Z,2.83
2022-12-22T06:21:21.396Z,2.05
2022-12-22T06:23:49.015Z,1.73
2022-12-22T06:26:18.329Z,1.60
2022-12-22T06:28:45.684Z,1.92
2022-12-22T06:31:13.396Z,2.28
2022-12-22T06:33:40.845Z,1.60
2022-12-22T06:36:09.390Z,1.48
2022-12-22T06:38:37.195Z,1.60
2022-12-22T06:41:09.198Z,1.75
2022-12-22T06:43:36.579Z,1.65
2022-12-22T06:46:04.049Z,1.50
2022-12-22T06:48:31.715Z,1.10
2022-12-22T06:50:59.885Z,1.42
2022-12-22T06:53:27.700Z,1.42
2022-12-22T06:55:55.123Z,1.60
2022-12-22T06:58:22.799Z,1.25
2022-12-22T07:00:51.409Z,1.13
2022-12-22T07:03:19.128Z,0.82
2022-12-22T07:05:46.765Z,1.05
2022-12-22T07:08:14.600Z,1.02
2022-12-22T07:11:00.290Z,1.13
2022-12-22T07:13:35.294Z,1.10
2022-12-22T07:16:07.573Z,0.80
2022-12-22T07:18:42.179Z,0.80
2022-12-22T07:21:11.630Z,1.83
2022-12-22T07:23:39.773Z,1.30
2022-12-22T07:26:08.085Z,0.88
2022-12-22T07:28:36.874Z,1.60
2022-12-22T07:31:04.822Z,1.33
2022-12-22T07:33:32.863Z,1.40
2022-12-22T07:36:06.267Z,1.10
2022-12-22T07:38:34.939Z,1.10
2022-12-22T07:41:05.269Z,1.13
2022-12-22T07:43:33.421Z,1.00
2022-12-22T07:46:00.958Z,1.20
2022-12-22T07:48:47.075Z,1.10
2022-12-22T07:51:14.604Z,0.80
2022-12-22T07:53:42.391Z,1.00
2022-12-22T07:56:09.736Z,0.82
2022-12-22T07:58:37.604Z,1.20
2022-12-22T08:01:05.055Z,1.48
2022-12-22T08:03:32.860Z,1.00
2022-12-22T08:06:00.425Z,1.27
2022-12-22T08:08:28.234Z,1.10
2022-12-22T08:10:55.613Z,1.25
2022-12-22T08:13:23.171Z,0.90
2022-12-22T08:15:50.739Z,0.80
2022-12-22T08:18:18.169Z,1.10
2022-12-22T08:20:52.837Z,1.20
2022-12-22T08:23:20.573Z,1.05
2022-12-22T08:25:49.823Z,1.08
2022-12-22T08:28:18.870Z,1.08
2022-12-22T08:30:47.062Z,1.05
2022-12-22T08:33:14.966Z,1.10
2022-12-22T08:35:43.298Z,0.80
2022-12-22T08:38:12.760Z,1.00
2022-12-22T08:40:40.318Z,1.02
2022-12-22T08:43:10.259Z,0.90
2022-12-22T08:45:37.959Z,1.20
2022-12-22T08:48:05.620Z,1.13
2022-12-22T08:50:32.925Z,1.40
2022-12-22T08:53:37.243Z,1.17
2022-12-22T08:55:59.548Z,1.20
2022-12-22T08:58:27.023Z,1.63
2022-12-22T09:00:54.793Z,1.33
2022-12-22T09:03:22.513Z,1.25
2022-12-22T09:05:50.307Z,1.20
2022-12-22T09:08:18.151Z,1.08
2022-12-22T09:10:45.692Z,1.50
2022-12-22T09:13:13.118Z,1.55
2022-12-22T09:15:40.506Z,1.10
2022-12-22T09:18:08.091Z,1.30
2022-12-22T09:20:35.664Z,1.30
2022-12-22T09:23:03.221Z,1.30
2022-12-22T09:25:30.556Z,1.50
2022-12-22T09:27:59.027Z,1.35
2022-12-22T09:30:26.637Z,1.67
2022-12-22T09:32:55.941Z,1.67
2022-12-22T09:35:23.675Z,1.05
2022-12-22T09:37:51.198Z,2.17
2022-12-22T09:40:22.355Z,2.15
2022-12-22T09:42:49.746Z,1.48
2022-12-22T09:45:20.468Z,1.88
2022-12-22T09:47:53.682Z,1.40
2022-12-22T09:50:23.741Z,1.30
2022-12-22T09:52:59.593Z,1.52
2022-12-22T09:55:27.337Z,1.38
2022-12-22T09:57:55.379Z,1.05
2022-12-22T10:00:27.220Z,1.63
2022-12-22T10:03:04.026Z,1.30
2022-12-22T10:05:51.703Z,1.50
2022-12-22T10:08:27.896Z,1.35
2022-12-22T10:10:56.139Z,1.70
2022-12-22T10:13:23.889Z,1.52
2022-12-22T10:15:52.586Z,1.70
2022-12-22T10:18:22.455Z,1.42
2022-12-22T10:21:10.383Z,1.30
2022-12-22T10:23:43.324Z,2.15
2022-12-22T10:26:28.725Z,1.52
2022-12-22T10:29:00.878Z,1.13
2022-12-22T10:31:29.758Z,1.65
2022-12-22T10:33:59.416Z,1.38
2022-12-22T10:36:31.814Z,1.17
2022-12-22T10:39:05.776Z,1.20
2022-12-22T10:41:36.047Z,1.70
2022-12-22T10:44:05.456Z,1.55
2022-12-22T10:46:47.420Z,1.60
2022-12-22T10:49:25.975Z,1.25
2022-12-22T10:51:54.757Z,1.60
2022-12-22T10:54:26.932Z,1.05
2022-12-22T10:57:05.126Z,1.48
2022-12-22T10:59:33.457Z,1.48
2022-12-22T11:02:21.506Z,1.42
2022-12-22T11:04:50.192Z,1.55
2022-12-22T11:07:21.503Z,1.55
2022-12-22T11:09:49.035Z,1.40
2022-12-22T11:12:19.428Z,1.25
2022-12-22T11:14:47.283Z,1.70
2022-12-22T11:17:22.546Z,1.05
2022-12-22T11:20:05.618Z,1.30
2022-12-22T11:22:42.598Z,1.38
2022-12-22T11:25:13.040Z,1.05
2022-12-22T11:27:46.602Z,1.02
2022-12-22T11:30:14.107Z,1.73
2022-12-22T11:32:50.744Z,0.80
2022-12-22T11:35:27.151Z,1.33
2022-12-22T11:37:59.947Z,0.98
2022-12-22T11:40:46.662Z,1.05
2022-12-22T11:43:17.452Z,1.10
2022-12-22T11:45:45.156Z,1.17
2022-12-22T11:48:12.589Z,1.23
2022-12-22T11:50:59.573Z,1.25
2022-12-22T11:53:45.213Z,0.80
2022-12-22T11:56:21.084Z,1.00
2022-12-22T11:59:03.881Z,1.02
2022-12-22T12:01:50.614Z,1.33
2022-12-22T12:04:33.274Z,1.40
2022-12-22T12:07:09.954Z,1.52
2022-12-22T12:09:44.554Z,1.48
2022-12-22T12:12:16.083Z,1.05
2022-12-22T12:14:43.689Z,1.25
2022-12-22T12:17:14.163Z,1.10
2022-12-22T12:19:56.588Z,1.38
2022-12-22T12:22:33.518Z,1.40
2022-12-22T12:25:26.239Z,1.27
2022-12-22T12:27:56.883Z,1.42
2022-12-22T12:30:40.444Z,2.10
2022-12-22T12:33:07.920Z,1.55
2022-12-22T12:35:51.714Z,1.35
2022-12-22T12:38:39.843Z,1.40
2022-12-22T12:41:19.593Z,1.50
2022-12-22T12:43:49.368Z,15.23
2022-12-22T12:46:35.773Z,3.55
2022-12-22T12:49:03.282Z,42.50
2022-12-22T12:51:48.268Z,19.80
2022-12-22T12:54:36.541Z,2.97
2022-12-22T12:57:24.088Z,1.92
2022-12-22T12:59:53.000Z,1.48
2022-12-22T13:02:30.051Z,4.20
2022-12-22T13:05:13.045Z,2.63
2022-12-22T13:07:59.343Z,3.20
2022-12-22T13:10:27.004Z,4.57
2022-12-22T13:12:55.637Z,3.30
2022-12-22T13:15:32.303Z,2.33
2022-12-22T13:18:00.983Z,1.95
2022-12-22T13:20:38.679Z,3.58
2022-12-22T13:23:12.505Z,2.30
2022-12-22T13:25:54.942Z,1.85
2022-12-22T13:28:24.691Z,2.05
2022-12-22T13:31:01.078Z,1.40
2022-12-22T13:33:31.004Z,1.80
2022-12-22T13:35:59.589Z,2.88
2022-12-22T13:38:27.359Z,2.15
2022-12-22T13:40:54.834Z,1.58
2022-12-22T13:43:24.744Z,0.77
2022-12-22T13:45:53.834Z,1.65
2022-12-22T13:48:44.472Z,1.23
2022-12-22T13:51:26.926Z,1.63
2022-12-22T13:54:12.047Z,1.90
2022-12-22T13:56:50.684Z,1.85
2022-12-22T13:59:38.383Z,1.60
2022-12-22T14:02:15.714Z,2.33
2022-12-22T14:04:46.874Z,2.15
2022-12-22T14:07:21.126Z,1.35
2022-12-22T14:09:49.373Z,1.42
2022-12-22T14:12:19.404Z,2.30
2022-12-22T14:14:48.056Z,1.00
2022-12-22T14:17:23.532Z,1.77
2022-12-22T14:19:51.914Z,2.22
2022-12-22T14:22:20.649Z,1.95
2022-12-22T14:24:54.881Z,1.10
2022-12-22T14:29:50.370Z,1.98
2022-12-22T14:32:57.997Z,2.08
2022-12-22T14:35:27.270Z,1.75
2022-12-22T14:37:56.488Z,2.10
2022-12-22T14:40:30.519Z,1.13
2022-12-22T14:42:59.358Z,2.20
2022-12-22T14:45:27.014Z,2.05
2022-12-22T14:47:55.620Z,1.63
2022-12-22T14:50:27.346Z,1.83
2022-12-22T14:53:01.970Z,1.73
2022-12-22T14:55:38.136Z,2.17
2022-12-22T14:58:11.043Z,1.63
2022-12-22T15:00:39.993Z,1.30
2022-12-22T15:03:28.105Z,6.65
2022-12-22T15:05:55.782Z,2.22
2022-12-22T15:08:43.034Z,2.58
2022-12-22T15:11:15.799Z,1.40
2022-12-22T15:13:43.894Z,2.20
2022-12-22T15:16:14.342Z,2.22
2022-12-22T15:18:41.957Z,2.70
2022-12-22T15:21:10.755Z,1.10
2022-12-22T15:23:38.150Z,1.58
2022-12-22T15:26:05.789Z,1.48
2022-12-22T15:28:33.251Z,1.10
2022-12-22T15:31:01.179Z,2.78
2022-12-22T15:33:29.019Z,2.38
2022-12-22T15:35:56.451Z,2.08
2022-12-22T15:38:25.001Z,12.75
2022-12-22T15:40:53.169Z,3.15
2022-12-22T15:43:55.770Z,2.55
2022-12-22T15:46:08.180Z,3.78
2022-12-22T15:48:37.564Z,4.40
2022-12-22T15:51:06.050Z,3.28
2022-12-22T15:53:34.165Z,2.88
2022-12-22T15:56:02.265Z,6.05
2022-12-22T15:58:33.007Z,3.67
2022-12-22T16:01:01.290Z,3.50
2022-12-22T16:03:28.773Z,3.58
2022-12-22T16:05:56.447Z,3.55
2022-12-22T16:08:28.505Z,2.95
2022-12-22T16:10:55.957Z,3.08
2022-12-22T16:13:25.409Z,2.25
2022-12-22T16:15:52.898Z,3.13
2022-12-22T16:18:20.487Z,5.25
2022-12-22T16:20:50.693Z,7.72
2022-12-22T16:23:19.165Z,3.38
2022-12-22T16:25:47.473Z,3.13
2022-12-22T16:28:20.873Z,2.92
2022-12-22T16:30:48.719Z,4.37
2022-12-22T16:33:16.684Z,3.65
2022-12-22T16:35:44.255Z,2.85
2022-12-22T16:38:17.946Z,6.05
2022-12-22T16:40:47.802Z,7.88
2022-12-22T16:46:03.861Z,6.15
2022-12-22T16:48:36.175Z,6.30
2022-12-22T16:51:03.675Z,5.53
2022-12-22T16:53:31.461Z,4.63
2022-12-22T16:56:02.195Z,4.32
2022-12-22T16:58:29.975Z,3.72
2022-12-22T17:00:57.423Z,3.95
2022-12-22T17:03:28.812Z,3.88
2022-12-22T17:06:03.526Z,5.20
2022-12-22T17:08:32.950Z,5.43
2022-12-22T17:11:10.947Z,5.93
2022-12-22T17:13:39.217Z,8.95
2022-12-22T17:16:06.762Z,11.70
2022-12-22T17:18:35.106Z,2.78
2022-12-22T17:21:04.507Z,9.52
2022-12-22T17:23:37.274Z,4.78
2022-12-22T17:26:07.446Z,2.50
2022-12-22T17:28:36.010Z,4.60
2022-12-22T17:31:03.692Z,3.38
2022-12-22T17:33:32.541Z,3.80
2022-12-22T17:36:00.040Z,3.25
2022-12-22T17:38:29.040Z,2.40
2022-12-22T17:40:57.811Z,5.82
2022-12-22T17:43:25.274Z,2.85
2022-12-22T17:45:53.687Z,4.20
2022-12-22T17:48:21.071Z,3.47
2022-12-22T17:50:50.368Z,3.35
2022-12-22T17:53:21.408Z,4.00
2022-12-22T17:56:07.626Z,2.40
2022-12-22T17:58:35.625Z,2.50
2022-12-22T18:01:03.237Z,3.50
2022-12-22T18:03:31.065Z,3.13
2022-12-22T18:06:00.116Z,3.03
2022-12-22T18:08:27.741Z,2.63
2022-12-22T18:10:55.248Z,5.70
2022-12-22T18:13:26.044Z,2.50
2022-12-22T18:15:55.309Z,2.55
2022-12-22T18:18:23.257Z,3.42
2022-12-22T18:21:05.737Z,5.00
2022-12-22T18:23:35.343Z,5.88
2022-12-22T18:26:02.852Z,2.30
2022-12-22T18:28:30.339Z,2.55
2022-12-22T18:30:58.185Z,3.20
2022-12-22T18:33:25.661Z,7.10
2022-12-22T18:35:53.224Z,3.58
2022-12-22T18:38:28.221Z,2.60
2022-12-22T18:40:55.928Z,2.40
2022-12-22T18:43:23.824Z,3.80
2022-12-22T18:45:51.373Z,3.15
2022-12-22T18:48:18.878Z,3.22
2022-12-22T18:50:46.389Z,2.92
2022-12-22T18:53:19.528Z,2.60
2022-12-22T18:55:46.992Z,2.67
2022-12-22T18:58:15.811Z,2.53
2022-12-22T19:00:43.770Z,2.80
2022-12-22T19:03:19.078Z,2.08
2022-12-22T19:05:47.746Z,1.65
2022-12-22T19:08:33.810Z,2.72
2022-12-22T19:11:04.623Z,2.30
2022-12-22T19:13:34.780Z,2.75
2022-12-22T19:16:02.543Z,2.08
2022-12-22T19:18:30.341Z,2.67
2022-12-22T19:20:57.884Z,2.60
2022-12-22T19:23:26.121Z,2.47
2022-12-22T19:25:54.463Z,2.65
2022-12-22T19:28:39.912Z,2.20
2022-12-22T19:31:08.323Z,2.38
2022-12-22T19:33:36.899Z,1.67
2022-12-22T19:36:05.090Z,2.40
2022-12-22T19:38:32.971Z,2.50
2022-12-22T19:41:03.897Z,2.53
2022-12-22T19:43:32.050Z,2.13
2022-12-22T19:45:59.601Z,2.17
2022-12-22T19:48:27.940Z,2.33
2022-12-22T19:50:55.720Z,2.67
2022-12-22T19:53:23.128Z,3.25
2022-12-22T19:55:55.030Z,3.20
2022-12-22T19:58:27.561Z,2.58
2022-12-22T20:00:55.461Z,2.53
2022-12-22T20:03:24.867Z,2.10
2022-12-22T20:05:52.762Z,3.13
2022-12-22T20:08:20.415Z,2.78
2022-12-22T20:10:52.935Z,2.72
2022-12-22T20:13:24.216Z,3.92
2022-12-22T20:15:51.789Z,3.10
2022-12-22T20:18:28.520Z,2.50
2022-12-22T20:21:06.250Z,3.17
2022-12-22T20:23:36.201Z,2.50
2022-12-22T20:26:05.713Z,2.20
2022-12-22T20:28:35.624Z,2.28
2022-12-22T20:31:03.303Z,3.20
2022-12-22T20:33:31.390Z,2.85
2022-12-22T20:35:59.309Z,2.50
2022-12-22T20:38:26.744Z,2.80
2022-12-22T20:40:55.128Z,2.42
2022-12-22T20:43:23.807Z,2.25
2022-12-22T20:45:52.627Z,1.85
2022-12-22T20:48:35.484Z,2.35
2022-12-22T20:51:03.336Z,2.95
2022-12-22T20:53:31.183Z,2.40
2022-12-22T20:55:59.264Z,3.55
2022-12-22T20:58:28.626Z,5.57
2022-12-22T21:01:00.225Z,8.27
2022-12-22T21:03:27.899Z,7.18
2022-12-22T21:05:55.425Z,7.50
2022-12-22T21:08:24.705Z,7.05
2022-12-22T21:10:52.901Z,6.03
2022-12-22T21:13:20.793Z,6.45
2022-12-22T21:15:50.397Z,5.63
2022-12-22T21:18:20.406Z,6.30
2022-12-22T21:20:48.353Z,5.32
2022-12-22T21:23:16.689Z,3.60
2022-12-22T21:25:46.812Z,3.05
2022-12-22T21:28:22.211Z,3.80
2022-12-22T21:30:49.986Z,2.28
2022-12-22T21:33:17.521Z,2.47
2022-12-22T21:35:45.337Z,2.28
2022-12-22T21:38:17.446Z,2.28
2022-12-22T21:40:47.021Z,2.05
2022-12-22T21:43:15.207Z,2.08
2022-12-22T21:45:43.721Z,2.97
2022-12-22T21:48:16.187Z,2.15
2022-12-22T21:50:43.636Z,2.58
2022-12-22T21:53:21.555Z,3.13
2022-12-22T21:55:49.998Z,1.13
2022-12-22T21:58:18.263Z,4.30
2022-12-22T22:00:49.334Z,2.92
2022-12-22T22:03:17.344Z,2.28
2022-12-22T22:05:44.906Z,2.50
2022-12-22T22:08:13.181Z,2.10
2022-12-22T22:10:42.335Z,3.20
2022-12-22T22:13:13.307Z,2.90
2022-12-22T22:15:40.941Z,3.10
2022-12-22T22:18:08.486Z,1.67
2022-12-22T22:20:36.090Z,2.40
2022-12-22T22:23:03.933Z,2.40
2022-12-22T22:25:31.712Z,2.15
2022-12-22T22:28:00.112Z,3.13
2022-12-22T22:30:28.053Z,2.70
2022-12-22T22:32:56.155Z,1.80
2022-12-22T22:35:24.331Z,1.80
2022-12-22T22:37:52.169Z,2.30
2022-12-22T22:40:21.498Z,1.98
2022-12-22T22:42:49.339Z,3.05
2022-12-22T22:45:23.490Z,2.78
2022-12-22T22:47:52.254Z,2.88
2022-12-22T22:50:23.747Z,2.80
2022-12-22T22:52:51.251Z,2.30
2022-12-22T22:55:18.791Z,3.15
2022-12-22T22:57:46.321Z,2.60
2022-12-22T23:00:15.772Z,1.80
2022-12-22T23:02:43.972Z,2.40
2022-12-22T23:05:15.517Z,2.20
2022-12-22T23:07:47.888Z,1.98
2022-12-22T23:10:15.423Z,1.80
2022-12-22T23:12:42.793Z,2.05
2022-12-22T23:15:10.350Z,2.17
2022-12-22T23:17:38.150Z,2.00
2022-12-22T23:20:06.004Z,2.25
2022-12-22T23:22:33.799Z,2.00
2022-12-22T23:25:01.341Z,1.95
2022-12-22T23:27:28.873Z,2.20
2022-12-22T23:29:56.871Z,2.00
2022-12-22T23:32:24.318Z,1.80
2022-12-22T23:34:52.025Z,2.10
2022-12-22T23:37:20.014Z,2.17
2022-12-22T23:39:47.834Z,1.70
2022-12-22T23:42:15.413Z,2.50
2022-12-22T23:44:42.951Z,2.33
2022-12-22T23:47:10.473Z,2.08
2022-12-22T23:49:38.081Z,2.05
2022-12-22T23:52:05.619Z,1.98
2022-12-22T23:54:33.320Z,1.65
2022-12-22T23:57:00.751Z,1.55
2022-12-22T23:59:29.003Z,1.70
